KVCT - Victoria Rgnl, TX, US

Issued at 2327 UTC 05 Dec 2019
Updated at 0333 UTC 06 Dec 2019
Potential Impact None Slight Moderate High
Time0251Z 06/04Z 06/05Z 06/06Z 06/07Z 06/08Z 06/09Z 06/10Z 06/11Z 06/12Z 06/13Z 06/14Z 06/15Z 06/16Z>>
Type OBS PRVL PRVL PRVL PRVL PRVL PRVL PRVL PRVL PRVL PRVL PRVL PRVL PRVL
VIS 10 3 3 3 3 3 0.5 0.5 0.5 0.5 0.5 2 2 >6
CIG -- 15 15 15 15 15 2 2 2 2 2 5 5 --
Cover CLR OVC OVC OVC OVC OVC OVX OVX OVX OVX OVX OVC OVC SCT
FltCat VFR MVFR MVFR MVFR MVFR MVFR LIFR LIFR LIFR LIFR LIFR IFR IFR VFR
WX -- BR BR BR BR BR FG FG FG FG FG BR BR --
WDir 160 VRB VRB VRB VRB VRB VRB VRB VRB VRB VRB VRB VRB 340
WSpd 6 3 3 3 3 3 3 3 3 3 3 5 5 11
WGst -- -- -- -- -- -- -- -- -- -- -- -- -- --
Raw TAF
KVCT 052327Z 0600/0624 17010KT P6SM SCT035 BKN250
  FM060400 VRB03KT 3SM BR OVC015
  FM060900 VRB03KT 1/2SM FG VV002
  FM061400 VRB05KT 2SM BR OVC005
  FM061600 34011KT P6SM SCT015
  FM061800 34012KT P6SM SKC


Raw METAR
KVCT 060251Z 16006KT 10SM CLR 18/17 A3000 RMK AO2 SLP157 T01830167 51010
KVCT 060151Z 16007KT 10SM CLR 21/17 A2999 RMK AO2 SLP153 T02060172
KVCT 060051Z 16008KT 10SM CLR 21/17 A2998 RMK AO2 SLP151 T02110172

METAR Board
Radar Display
Forecast Discussion
For situational awareness. Not to be used for flight planning purposes.